Huvudsida
METAR-TAF:

METAR-TAF

Flygplatser :

Port Moresby, Papua Nya Guinea

latitud: 09-26S, longitud: 147-13E, höjd: 38 m

Aktuellt väderrapport

Denna rapport gjordes för 52 minuter sedan, klockan 18:00 UTC
Vind 5 kt från nordväst
Temperatur 26°C
Fuktighet 89%
Tryck 1006 hPa
Sikt 10 km eller mer
Spridda moln på en höjd av 18000 ft

METAR: AYPY 111800Z 31005KT 9999 SCT180 26/24 Q1006

Tid: 04:52 (18:52 UTC)

Väderprognos

Denna rapport gjordes för 8 timmar och 51 minuter sedan, klockan 10:01 UTC
Prognos gäller från 11 kl. 12 UTC till 12 kl. 12 UTC
Vind 3 kt varierande vindriktning
Sikt 10 km eller mer
Spridda moln på en höjd av 1600 ft
Spridda moln på en höjd av 3500 ft
Brutna moln på en höjd av 13000 ft
lätta regnskurar
Från 11 kl. 1800 UTC
Vind kt från nord
Sikt 10 km eller mer
Brutna moln på en höjd av 3500 ft

TAF: AYPY 111001Z 1112/1212 VRB03KT 9999 -SHRA SCT016 SCT035 BKN130 FM111800 00000KT 9999 BKN035

Aktuella väderrapporter och prognoser från 4000 flygplatser (METAR- och TAF-rapporter).

De tillgängliga stationerna syns som gula och röda prickar på kartan.

För musen över prickarna för att se namnen på stationerna.

Klicka sedan för att få väderrapporter och prognoser.

För att ändra kartan: Klicka på de gröna knapparna med ett svart kors på för att zooma in; den gröna knappen med ett streck på för att zooma ut; eller på de gröna pilarna för angränsande kartor.


METAR-TAF: